createdAt,value
2019-04-04T00:00:39.328Z,0.00
2019-04-04T00:01:39.307Z,0.00
2019-04-04T00:02:39.301Z,0.00
2019-04-04T00:03:39.288Z,0.00
2019-04-04T00:04:39.273Z,0.00
2019-04-04T00:05:39.268Z,0.00
2019-04-04T00:06:39.249Z,0.00
2019-04-04T00:07:39.227Z,0.00
2019-04-04T00:08:39.263Z,0.00
2019-04-04T00:09:39.205Z,0.00
2019-04-04T00:10:39.200Z,0.00
2019-04-04T00:11:39.187Z,0.00
2019-04-04T00:12:39.629Z,0.00
2019-04-04T00:13:40.019Z,0.00
2019-04-04T00:14:39.173Z,0.00
2019-04-04T00:15:39.140Z,0.00
2019-04-04T00:16:39.135Z,0.00
2019-04-04T00:17:39.121Z,0.00
2019-04-04T00:18:39.123Z,0.00
2019-04-04T00:19:39.096Z,0.00
2019-04-04T00:20:39.096Z,0.00
2019-04-04T00:21:39.090Z,0.00
2019-04-04T00:22:39.069Z,0.00
2019-04-04T00:23:39.070Z,0.00
2019-04-04T00:24:39.501Z,0.00
2019-04-04T00:25:40.500Z,0.00
2019-04-04T00:26:41.700Z,0.00
2019-04-04T00:27:39.026Z,0.00
2019-04-04T00:28:39.018Z,0.00
2019-04-04T00:29:38.995Z,0.00
2019-04-04T00:30:39.002Z,0.00
2019-04-04T00:31:38.972Z,0.00
2019-04-04T00:32:38.962Z,0.00
2019-04-04T00:33:38.967Z,0.00
2019-04-04T00:34:38.951Z,0.00
2019-04-04T00:35:38.923Z,0.00
2019-04-04T00:36:38.931Z,0.00
2019-04-04T00:37:41.075Z,0.00
2019-04-04T00:38:38.908Z,0.00
2019-04-04T00:39:39.892Z,0.00
2019-04-04T00:40:41.714Z,0.00
2019-04-04T00:41:38.865Z,0.00
2019-04-04T00:42:38.874Z,0.00
2019-04-04T00:43:38.850Z,0.00
2019-04-04T00:44:38.834Z,0.00
2019-04-04T00:45:38.818Z,0.00
2019-04-04T00:46:38.812Z,0.00
2019-04-04T00:47:38.800Z,0.00
2019-04-04T00:48:38.807Z,0.00
2019-04-04T00:49:38.770Z,0.00
2019-04-04T00:50:38.777Z,0.00
2019-04-04T00:51:39.585Z,0.00
2019-04-04T00:52:40.740Z,0.00
2019-04-04T00:53:38.758Z,0.00
2019-04-04T00:54:38.725Z,0.00
2019-04-04T00:55:38.709Z,0.00
2019-04-04T00:56:38.698Z,0.00
2019-04-04T00:57:38.682Z,0.00
2019-04-04T00:58:38.699Z,0.00
2019-04-04T00:59:38.662Z,0.00
2019-04-04T01:00:38.659Z,0.00
2019-04-04T01:01:38.649Z,0.00
2019-04-04T01:02:38.635Z,0.00
2019-04-04T01:03:38.629Z,0.00
2019-04-04T01:04:38.614Z,0.00
2019-04-04T01:05:38.595Z,0.00
2019-04-04T01:06:38.599Z,0.00
2019-04-04T01:07:38.594Z,0.00
2019-04-04T01:08:39.036Z,0.00
2019-04-04T01:09:38.555Z,0.00
2019-04-04T01:10:38.549Z,0.00
2019-04-04T01:11:38.541Z,0.00
2019-04-04T01:12:38.528Z,0.00
2019-04-04T01:13:38.530Z,0.00
2019-04-04T01:14:38.507Z,0.00
2019-04-04T01:15:38.492Z,0.00
2019-04-04T01:16:38.492Z,0.00
2019-04-04T01:17:38.476Z,0.00
2019-04-04T01:18:38.471Z,0.00
2019-04-04T01:19:38.446Z,0.00
2019-04-04T01:20:39.453Z,0.00
2019-04-04T01:21:38.427Z,0.00
2019-04-04T01:22:38.433Z,0.00
2019-04-04T01:23:38.415Z,0.00
2019-04-04T01:24:38.421Z,0.00
2019-04-04T01:25:38.394Z,0.00
2019-04-04T01:26:38.379Z,0.00
2019-04-04T01:27:38.363Z,0.00
2019-04-04T01:28:39.051Z,0.00
2019-04-04T01:29:38.987Z,0.00
2019-04-04T01:30:38.369Z,0.00
2019-04-04T01:31:38.314Z,0.00
2019-04-04T01:32:38.312Z,0.00
2019-04-04T01:33:38.309Z,0.00
2019-04-04T01:34:38.303Z,0.00
2019-04-04T01:35:38.285Z,0.00
2019-04-04T01:36:38.268Z,0.00
2019-04-04T01:37:38.252Z,0.00
2019-04-04T01:38:38.242Z,0.00
2019-04-04T01:39:38.240Z,0.00
2019-04-04T01:40:38.235Z,0.00
2019-04-04T01:41:38.239Z,0.00
2019-04-04T01:42:38.928Z,0.00
2019-04-04T01:43:40.066Z,0.00
2019-04-04T01:44:38.192Z,0.00
2019-04-04T01:45:38.168Z,0.00
2019-04-04T01:46:38.158Z,0.00
2019-04-04T01:47:38.137Z,0.00
2019-04-04T01:48:38.142Z,0.00
2019-04-04T01:49:38.130Z,0.00
2019-04-04T01:50:38.117Z,0.00
2019-04-04T01:51:38.093Z,0.00
2019-04-04T01:52:38.088Z,0.00
2019-04-04T01:53:38.108Z,0.00
2019-04-04T01:54:38.089Z,0.00
2019-04-04T01:55:38.055Z,0.00
2019-04-04T01:56:38.049Z,0.00
2019-04-04T01:57:38.993Z,0.00
2019-04-04T01:58:40.992Z,0.00
2019-04-04T01:59:38.025Z,0.00
2019-04-04T02:00:38.014Z,0.00
2019-04-04T02:01:37.991Z,0.00
2019-04-04T02:02:38.000Z,0.00
2019-04-04T02:03:37.966Z,0.00
2019-04-04T02:04:37.971Z,0.00
2019-04-04T02:05:37.945Z,0.00
2019-04-04T02:06:37.942Z,0.00
2019-04-04T02:07:37.923Z,0.00
2019-04-04T02:08:37.918Z,0.00
2019-04-04T02:09:37.926Z,0.00
2019-04-04T02:10:37.898Z,0.00
2019-04-04T02:11:38.048Z,0.00
2019-04-04T02:12:39.234Z,0.00
2019-04-04T02:13:38.930Z,0.00
2019-04-04T02:14:37.864Z,0.00
2019-04-04T02:15:37.841Z,0.00
2019-04-04T02:16:37.836Z,0.00
2019-04-04T02:17:37.822Z,0.00
2019-04-04T02:18:37.805Z,0.00
2019-04-04T02:19:37.855Z,0.00
2019-04-04T02:20:37.854Z,0.00
2019-04-04T02:21:37.766Z,0.00
2019-04-04T02:22:37.766Z,0.00
2019-04-04T02:23:37.765Z,0.00
2019-04-04T02:24:37.768Z,0.00
2019-04-04T02:25:37.745Z,0.00
2019-04-04T02:26:37.734Z,0.00
2019-04-04T02:27:38.392Z,0.00
2019-04-04T02:28:39.653Z,0.00
2019-04-04T02:29:37.700Z,0.00
2019-04-04T02:30:37.680Z,0.00
2019-04-04T02:31:37.681Z,0.00
2019-04-04T02:32:37.663Z,0.00
2019-04-04T02:33:37.645Z,0.00
2019-04-04T02:34:38.464Z,0.00
2019-04-04T02:35:37.617Z,0.00
2019-04-04T02:36:37.611Z,0.00
2019-04-04T02:37:37.624Z,0.00
2019-04-04T02:38:37.588Z,0.00
2019-04-04T02:39:37.599Z,0.00
2019-04-04T02:40:40.767Z,0.00
2019-04-04T02:41:37.565Z,0.00
2019-04-04T02:42:37.637Z,0.00
2019-04-04T02:43:37.552Z,0.00
2019-04-04T02:44:37.536Z,0.00
2019-04-04T02:45:38.821Z,0.00
2019-04-04T02:46:37.521Z,0.00
2019-04-04T02:47:37.489Z,0.00
2019-04-04T02:48:37.503Z,0.00
2019-04-04T02:49:37.483Z,0.00
2019-04-04T02:50:37.461Z,0.00
2019-04-04T02:51:40.416Z,0.00
2019-04-04T02:52:37.437Z,0.00
2019-04-04T02:53:37.432Z,0.00
2019-04-04T02:54:37.430Z,0.00
2019-04-04T02:55:37.405Z,0.00
2019-04-04T02:56:37.396Z,0.00
2019-04-04T02:57:41.061Z,0.00
2019-04-04T02:58:37.379Z,0.00
2019-04-04T02:59:37.394Z,0.00
2019-04-04T03:00:37.378Z,0.00
2019-04-04T03:01:37.343Z,0.00
2019-04-04T03:02:37.339Z,0.00
2019-04-04T03:03:41.014Z,0.00
2019-04-04T03:04:37.342Z,0.00
2019-04-04T03:05:37.312Z,0.00
2019-04-04T03:06:37.290Z,0.00
2019-04-04T03:07:37.277Z,0.00
2019-04-04T03:08:37.906Z,0.00
2019-04-04T03:09:39.642Z,0.00
2019-04-04T03:10:37.269Z,0.00
2019-04-04T03:11:37.240Z,0.00
2019-04-04T03:12:37.228Z,0.00
2019-04-04T03:13:37.241Z,0.00
2019-04-04T03:14:37.617Z,0.00
2019-04-04T03:15:41.012Z,0.00
2019-04-04T03:16:37.183Z,0.00
2019-04-04T03:17:37.176Z,0.00
2019-04-04T03:18:38.084Z,0.00
2019-04-04T03:19:37.154Z,0.00
2019-04-04T03:20:37.150Z,0.00
2019-04-04T03:21:37.123Z,0.00
2019-04-04T03:22:37.133Z,0.00
2019-04-04T03:23:37.136Z,0.00
2019-04-04T03:24:40.307Z,0.00
2019-04-04T03:25:38.112Z,0.00
2019-04-04T03:26:37.080Z,0.00
2019-04-04T03:27:37.060Z,0.00
2019-04-04T03:28:37.052Z,0.00
2019-04-04T03:29:37.648Z,0.00
2019-04-04T03:30:37.041Z,0.00
2019-04-04T03:31:38.817Z,0.00
2019-04-04T03:32:37.035Z,0.00
2019-04-04T03:33:37.027Z,0.00
2019-04-04T03:34:36.998Z,0.00
2019-04-04T03:35:37.033Z,0.00
2019-04-04T03:36:36.986Z,0.00
2019-04-04T03:37:40.458Z,0.00
2019-04-04T03:38:36.946Z,0.00
2019-04-04T03:39:36.938Z,0.00
2019-04-04T03:40:36.940Z,0.00
2019-04-04T03:41:36.922Z,0.00
2019-04-04T03:42:36.903Z,0.00
2019-04-04T03:43:36.893Z,0.00
2019-04-04T03:44:36.877Z,0.00
2019-04-04T03:45:36.881Z,0.00
2019-04-04T03:46:38.736Z,0.00
2019-04-04T03:47:36.848Z,0.00
2019-04-04T03:48:36.840Z,0.00
2019-04-04T03:49:36.837Z,0.00
2019-04-04T03:50:36.827Z,0.00
2019-04-04T03:51:38.044Z,0.00
2019-04-04T03:52:36.795Z,0.00
2019-04-04T03:53:36.792Z,0.00
2019-04-04T03:54:36.772Z,0.00
2019-04-04T03:55:36.769Z,0.00
2019-04-04T03:56:39.405Z,0.00
2019-04-04T03:57:36.738Z,0.00
2019-04-04T03:58:36.736Z,0.00
2019-04-04T03:59:36.740Z,0.00
2019-04-04T04:00:39.562Z,0.00
2019-04-04T04:01:36.698Z,0.00
2019-04-04T04:02:36.695Z,0.00
2019-04-04T04:03:36.689Z,0.00
2019-04-04T04:04:36.680Z,0.00
2019-04-04T04:05:40.531Z,0.00
2019-04-04T04:06:41.589Z,0.00
2019-04-04T04:07:37.632Z,0.00
2019-04-04T04:08:36.628Z,0.00
2019-04-04T04:09:36.610Z,0.00
2019-04-04T04:10:36.621Z,0.00
2019-04-04T04:11:37.455Z,0.00
2019-04-04T04:12:36.581Z,0.00
2019-04-04T04:13:36.574Z,0.00
2019-04-04T04:14:36.561Z,0.00
2019-04-04T04:15:36.568Z,0.00
2019-04-04T04:16:36.549Z,0.00
2019-04-04T04:17:36.693Z,0.00
2019-04-04T04:18:36.524Z,0.00
2019-04-04T04:19:36.504Z,0.00
2019-04-04T04:20:37.764Z,0.00
2019-04-04T04:21:36.483Z,0.00
2019-04-04T04:22:36.488Z,0.00
2019-04-04T04:23:36.469Z,0.00
2019-04-04T04:24:36.455Z,0.00
2019-04-04T04:25:36.880Z,0.00
2019-04-04T04:26:40.956Z,0.00
2019-04-04T04:27:37.434Z,0.00
2019-04-04T04:28:36.423Z,0.00
2019-04-04T04:29:36.397Z,0.00
2019-04-04T04:30:39.438Z,0.00
2019-04-04T04:31:36.378Z,0.00
2019-04-04T04:32:37.349Z,0.00
2019-04-04T04:33:36.358Z,0.00
2019-04-04T04:34:36.367Z,0.00
2019-04-04T04:35:40.844Z,0.00
2019-04-04T04:36:37.322Z,0.00
2019-04-04T04:37:36.307Z,0.00
2019-04-04T04:38:36.308Z,0.00
2019-04-04T04:39:40.962Z,0.00
2019-04-04T04:40:37.330Z,0.00
2019-04-04T04:41:36.277Z,0.00
2019-04-04T04:42:36.286Z,0.00
2019-04-04T04:43:36.242Z,0.00
2019-04-04T04:44:38.783Z,0.00
2019-04-04T04:45:36.240Z,0.00
2019-04-04T04:46:36.236Z,0.00
2019-04-04T04:47:36.204Z,0.00
2019-04-04T04:48:36.201Z,0.00
2019-04-04T04:49:36.447Z,0.00
2019-04-04T04:50:36.172Z,5.62
2019-04-04T04:51:36.174Z,5.62
2019-04-04T04:52:36.161Z,5.62
2019-04-04T04:53:36.140Z,5.62
2019-04-04T04:54:36.130Z,5.62
2019-04-04T04:55:36.117Z,5.62
2019-04-04T04:56:36.138Z,5.62
2019-04-04T04:57:37.264Z,5.62
2019-04-04T04:58:36.092Z,5.62
2019-04-04T04:59:36.072Z,5.62
2019-04-04T05:00:36.065Z,5.62
2019-04-04T05:01:36.080Z,5.62
2019-04-04T05:02:36.058Z,5.62
2019-04-04T05:03:36.044Z,11.25
2019-04-04T05:04:36.028Z,11.25
2019-04-04T05:05:36.019Z,11.25
2019-04-04T05:06:36.370Z,11.25
2019-04-04T05:07:38.431Z,11.25
2019-04-04T05:08:35.985Z,11.25
2019-04-04T05:09:35.969Z,11.25
2019-04-04T05:10:35.960Z,16.88
2019-04-04T05:11:35.972Z,16.88
2019-04-04T05:12:35.942Z,16.88
2019-04-04T05:13:35.926Z,16.88
2019-04-04T05:14:35.930Z,16.88
2019-04-04T05:15:35.917Z,22.50
2019-04-04T05:16:37.889Z,22.50
2019-04-04T05:17:35.882Z,22.50
2019-04-04T05:18:35.879Z,22.50
2019-04-04T05:19:35.858Z,28.12
2019-04-04T05:20:35.860Z,28.12
2019-04-04T05:21:35.852Z,28.12
2019-04-04T05:22:35.834Z,28.12
2019-04-04T05:23:35.815Z,28.12
2019-04-04T05:24:35.816Z,28.12
2019-04-04T05:25:35.800Z,28.12
2019-04-04T05:26:38.493Z,33.75
2019-04-04T05:27:37.250Z,33.75
2019-04-04T05:28:35.781Z,28.12
2019-04-04T05:29:35.790Z,28.12
2019-04-04T05:30:35.742Z,28.12
2019-04-04T05:31:35.778Z,28.12
2019-04-04T05:32:35.730Z,28.12
2019-04-04T05:33:35.712Z,28.12
2019-04-04T05:34:35.713Z,28.12
2019-04-04T05:35:37.668Z,28.12
2019-04-04T05:36:36.742Z,33.75
2019-04-04T05:37:37.853Z,33.75
2019-04-04T05:38:35.669Z,33.75
2019-04-04T05:39:35.647Z,33.75
2019-04-04T05:40:35.664Z,28.12
2019-04-04T05:41:37.286Z,28.12
2019-04-04T05:42:35.643Z,28.12
2019-04-04T05:43:37.544Z,28.12
2019-04-04T05:44:35.607Z,28.12
2019-04-04T05:45:35.591Z,28.12
2019-04-04T05:46:35.606Z,28.12
2019-04-04T05:47:35.579Z,28.12
2019-04-04T05:48:35.549Z,33.75
2019-04-04T05:49:36.180Z,33.75
2019-04-04T05:50:35.544Z,33.75
2019-04-04T05:51:36.277Z,33.75
2019-04-04T05:52:35.518Z,33.75
2019-04-04T05:53:36.052Z,39.38
2019-04-04T05:54:37.040Z,39.38
2019-04-04T05:55:35.476Z,39.38
2019-04-04T05:56:35.482Z,39.38
2019-04-04T05:57:35.485Z,39.38
2019-04-04T05:58:35.440Z,45.00
2019-04-04T05:59:35.433Z,45.00
2019-04-04T06:00:35.424Z,45.00
2019-04-04T06:01:36.003Z,39.38
2019-04-04T06:02:35.396Z,39.38
2019-04-04T06:03:35.382Z,39.38
2019-04-04T06:04:35.387Z,39.38
2019-04-04T06:05:35.385Z,39.38
2019-04-04T06:06:35.370Z,39.38
2019-04-04T06:07:36.421Z,39.38
2019-04-04T06:08:39.185Z,39.38
2019-04-04T06:09:36.313Z,45.00
2019-04-04T06:10:35.311Z,45.00
2019-04-04T06:11:35.302Z,45.00
2019-04-04T06:12:37.473Z,45.00
2019-04-04T06:13:35.272Z,45.00
2019-04-04T06:14:35.266Z,45.00
2019-04-04T06:15:35.250Z,45.00
2019-04-04T06:16:35.678Z,50.62
2019-04-04T06:17:38.795Z,50.62
2019-04-04T06:18:35.228Z,50.62
2019-04-04T06:19:35.212Z,50.62
2019-04-04T06:20:35.214Z,56.25
2019-04-04T06:21:35.191Z,56.25
2019-04-04T06:22:35.192Z,56.25
2019-04-04T06:23:35.164Z,56.25
2019-04-04T06:24:35.158Z,56.25
2019-04-04T06:25:35.864Z,56.25
2019-04-04T06:26:36.115Z,56.25
2019-04-04T06:27:35.141Z,56.25
2019-04-04T06:28:35.118Z,56.25
2019-04-04T06:29:35.098Z,56.25
2019-04-04T06:30:43.155Z,56.25
2019-04-04T06:31:36.074Z,56.25
2019-04-04T06:32:35.084Z,56.25
2019-04-04T06:33:35.371Z,56.25
2019-04-04T06:34:35.047Z,56.25
2019-04-04T06:35:35.120Z,56.25
2019-04-04T06:36:35.039Z,56.25
2019-04-04T06:37:35.047Z,56.25
2019-04-04T06:38:35.014Z,56.25
2019-04-04T06:39:34.990Z,56.25
2019-04-04T06:40:34.991Z,56.25
2019-04-04T06:41:34.970Z,56.25
2019-04-04T06:42:36.239Z,56.25
2019-04-04T06:43:34.947Z,56.25
2019-04-04T06:44:34.963Z,56.25
2019-04-04T06:45:34.936Z,56.25
2019-04-04T06:46:34.919Z,56.25
2019-04-04T06:47:34.982Z,56.25
2019-04-04T06:48:34.927Z,56.25
2019-04-04T06:49:35.512Z,61.88
2019-04-04T06:50:34.877Z,61.88
2019-04-04T06:51:34.864Z,61.88
2019-04-04T06:52:34.874Z,67.50
2019-04-04T06:53:34.847Z,67.50
2019-04-04T06:54:34.853Z,61.88
2019-04-04T06:55:39.757Z,61.88
2019-04-04T06:56:35.807Z,61.88
2019-04-04T06:57:36.749Z,61.88
2019-04-04T06:58:34.791Z,67.50
2019-04-04T06:59:34.936Z,67.50
2019-04-04T07:00:34.770Z,73.12
2019-04-04T07:01:34.751Z,78.75
2019-04-04T07:02:34.757Z,84.38
2019-04-04T07:03:34.729Z,90.00
2019-04-04T07:04:36.012Z,101.25
2019-04-04T07:05:37.822Z,106.88
2019-04-04T07:06:34.709Z,112.50
2019-04-04T07:07:34.704Z,118.12
2019-04-04T07:08:34.682Z,118.12
2019-04-04T07:09:37.174Z,123.75
2019-04-04T07:10:34.660Z,123.75
2019-04-04T07:11:35.119Z,123.75
2019-04-04T07:12:37.683Z,129.38
2019-04-04T07:13:42.142Z,135.00
2019-04-04T07:14:45.579Z,140.62
2019-04-04T07:15:46.126Z,146.25
2019-04-04T07:16:36.774Z,146.25
2019-04-04T07:17:34.601Z,146.25
2019-04-04T07:18:34.581Z,140.62
2019-04-04T07:19:34.566Z,146.25
2019-04-04T07:20:34.545Z,146.25
2019-04-04T07:21:34.543Z,146.25
2019-04-04T07:22:34.543Z,151.88
2019-04-04T07:23:34.541Z,157.50
2019-04-04T07:24:34.505Z,157.50
2019-04-04T07:25:35.928Z,157.50
2019-04-04T07:26:34.489Z,157.50
2019-04-04T07:27:34.500Z,157.50
2019-04-04T07:28:34.485Z,157.50
2019-04-04T07:29:34.454Z,157.50
2019-04-04T07:32:55.370Z,157.50
2019-04-04T07:33:55.345Z,151.88
2019-04-04T07:34:55.334Z,151.88
2019-04-04T07:35:55.325Z,146.25
2019-04-04T07:36:55.318Z,146.25
2019-04-04T07:37:57.553Z,146.25
2019-04-04T07:38:55.299Z,146.25
2019-04-04T07:39:55.284Z,151.88
2019-04-04T07:40:55.276Z,151.88
2019-04-04T07:41:55.258Z,151.88
2019-04-04T07:42:55.262Z,151.88
2019-04-04T07:43:55.555Z,151.88
2019-04-04T07:44:55.229Z,151.88
2019-04-04T07:45:59.557Z,146.25
2019-04-04T07:46:55.209Z,146.25
2019-04-04T07:47:55.211Z,140.62
2019-04-04T07:48:55.187Z,135.00
2019-04-04T07:49:55.494Z,129.38
2019-04-04T07:50:58.233Z,123.75
2019-04-04T07:51:55.155Z,118.12
2019-04-04T07:52:55.153Z,112.50
2019-04-04T07:53:55.132Z,112.50
2019-04-04T07:54:55.136Z,106.88
2019-04-04T07:55:55.111Z,106.88
2019-04-04T07:56:55.108Z,106.88
2019-04-04T07:57:55.096Z,106.88
2019-04-04T07:58:55.085Z,101.25
2019-04-04T07:59:55.061Z,101.25
2019-04-04T08:00:55.094Z,101.25
2019-04-04T08:01:55.038Z,101.25
2019-04-04T08:02:55.048Z,95.62
2019-04-04T08:03:55.019Z,101.25
2019-04-04T08:04:55.011Z,106.88
2019-04-04T08:06:02.617Z,112.50
2019-04-04T08:06:54.994Z,123.75
2019-04-04T08:07:55.000Z,123.75
2019-04-04T08:08:54.965Z,129.38
2019-04-04T08:09:54.952Z,129.38
2019-04-04T08:10:54.943Z,123.75
2019-04-04T08:11:54.928Z,123.75
2019-04-04T08:12:54.935Z,123.75
2019-04-04T08:13:54.906Z,123.75
2019-04-04T08:14:54.903Z,123.75
2019-04-04T08:15:54.902Z,129.38
2019-04-04T08:16:54.881Z,135.00
2019-04-04T08:17:54.874Z,135.00
2019-04-04T08:18:54.863Z,140.62
2019-04-04T08:19:59.807Z,140.62
2019-04-04T08:20:55.834Z,135.00
2019-04-04T08:21:54.824Z,129.38
2019-04-04T08:22:54.833Z,123.75
2019-04-04T08:23:54.798Z,129.38
2019-04-04T08:24:54.790Z,135.00
2019-04-04T08:25:54.776Z,146.25
2019-04-04T08:26:54.771Z,151.88
2019-04-04T08:27:54.773Z,163.12
2019-04-04T08:28:54.747Z,163.12
2019-04-04T08:29:54.731Z,163.12
2019-04-04T08:30:54.724Z,157.50
2019-04-04T08:31:54.712Z,151.88
2019-04-04T08:32:54.704Z,151.88
2019-04-04T08:33:54.706Z,151.88
2019-04-04T08:34:54.682Z,146.25
2019-04-04T08:36:05.312Z,140.62
2019-04-04T08:36:55.657Z,135.00
2019-04-04T08:37:54.649Z,129.38
2019-04-04T08:38:54.647Z,123.75
2019-04-04T08:39:54.628Z,123.75
2019-04-04T08:40:54.617Z,135.00
2019-04-04T08:41:54.614Z,140.62
2019-04-04T08:42:54.594Z,146.25
2019-04-04T08:43:54.612Z,146.25
2019-04-04T08:44:54.581Z,140.62
2019-04-04T08:45:54.562Z,135.00
2019-04-04T08:46:55.735Z,140.62
2019-04-04T08:47:54.568Z,140.62
2019-04-04T08:48:54.546Z,140.62
2019-04-04T08:49:54.522Z,140.62
2019-04-04T08:50:54.509Z,140.62
2019-04-04T08:51:54.496Z,140.62
2019-04-04T08:52:54.482Z,146.25
2019-04-04T08:53:54.496Z,157.50
2019-04-04T08:54:54.461Z,168.75
2019-04-04T08:55:54.460Z,168.75
2019-04-04T08:56:54.440Z,163.12
2019-04-04T08:57:54.429Z,163.12
2019-04-04T08:58:54.430Z,163.12
2019-04-04T08:59:54.416Z,163.12
2019-04-04T09:00:54.393Z,163.12
2019-04-04T09:01:54.389Z,163.12
2019-04-04T09:02:54.372Z,157.50
2019-04-04T09:03:54.380Z,163.12
2019-04-04T09:04:54.349Z,163.12
2019-04-04T09:05:54.356Z,168.75
2019-04-04T09:06:54.328Z,174.38
2019-04-04T09:07:54.331Z,180.00
2019-04-04T09:08:55.508Z,180.00
2019-04-04T09:09:54.373Z,180.00
2019-04-04T09:10:54.283Z,191.25
2019-04-04T09:11:54.278Z,196.88
2019-04-04T09:12:54.264Z,202.50
2019-04-04T09:13:54.270Z,213.75
2019-04-04T09:14:54.297Z,219.38
2019-04-04T09:15:54.230Z,213.75
2019-04-04T09:16:54.219Z,213.75
2019-04-04T09:17:54.210Z,213.75
2019-04-04T09:18:54.209Z,219.38
2019-04-04T09:19:54.188Z,225.00
2019-04-04T09:20:54.174Z,225.00
2019-04-04T09:21:54.164Z,225.00
2019-04-04T09:22:54.154Z,225.00
2019-04-04T09:23:54.162Z,225.00
2019-04-04T09:24:54.135Z,219.38
2019-04-04T09:26:05.007Z,213.75
2019-04-04T09:26:55.109Z,219.38
2019-04-04T09:27:54.101Z,219.38
2019-04-04T09:28:54.098Z,219.38
2019-04-04T09:29:54.083Z,219.38
2019-04-04T09:30:54.065Z,225.00
2019-04-04T09:31:54.052Z,225.00
2019-04-04T09:32:54.036Z,225.00
2019-04-04T09:33:54.064Z,230.62
2019-04-04T09:34:54.017Z,236.25
2019-04-04T09:35:54.020Z,241.88
2019-04-04T09:36:53.992Z,241.88
2019-04-04T09:37:53.989Z,241.88
2019-04-04T09:38:53.975Z,241.88
2019-04-04T09:39:53.982Z,241.88
2019-04-04T09:40:53.959Z,236.25
2019-04-04T09:41:53.944Z,236.25
2019-04-04T09:42:53.929Z,230.62
2019-04-04T09:43:53.920Z,230.62
2019-04-04T09:44:53.926Z,241.88
2019-04-04T09:45:53.902Z,247.50
2019-04-04T09:47:04.833Z,253.12
2019-04-04T09:47:54.869Z,241.88
2019-04-04T09:48:53.868Z,225.00
2019-04-04T09:49:53.864Z,202.50
2019-04-04T09:50:53.843Z,180.00
2019-04-04T09:51:53.831Z,180.00
2019-04-04T09:52:53.831Z,191.25
2019-04-04T09:53:54.148Z,191.25
2019-04-04T09:54:53.824Z,191.25
2019-04-04T09:55:53.781Z,191.25
2019-04-04T09:56:53.775Z,191.25
2019-04-04T09:57:53.762Z,185.62
2019-04-04T09:58:55.212Z,185.62
2019-04-04T09:59:53.759Z,180.00
2019-04-04T10:00:53.731Z,180.00
2019-04-04T10:01:53.716Z,180.00
2019-04-04T10:02:53.711Z,180.00
2019-04-04T10:03:53.723Z,180.00
2019-04-04T10:04:53.700Z,180.00
2019-04-04T10:05:53.673Z,180.00
2019-04-04T10:06:54.061Z,180.00
2019-04-04T10:07:53.654Z,180.00
2019-04-04T10:08:53.649Z,180.00
2019-04-04T10:09:53.651Z,174.38
2019-04-04T10:10:53.644Z,168.75
2019-04-04T10:11:53.605Z,168.75
2019-04-04T10:12:53.599Z,174.38
2019-04-04T10:13:53.582Z,174.38
2019-04-04T10:14:53.596Z,180.00
2019-04-04T10:15:53.563Z,180.00
2019-04-04T10:16:53.552Z,180.00
2019-04-04T10:17:53.537Z,180.00
2019-04-04T10:18:53.934Z,185.62
2019-04-04T10:19:53.533Z,185.62
2019-04-04T10:20:53.518Z,185.62
2019-04-04T10:21:53.500Z,191.25
2019-04-04T10:22:53.487Z,191.25
2019-04-04T10:23:53.475Z,185.62
2019-04-04T10:24:53.478Z,185.62
2019-04-04T10:25:53.456Z,185.62
2019-04-04T10:26:53.444Z,180.00
2019-04-04T10:27:53.457Z,180.00
2019-04-04T10:28:53.618Z,185.62
2019-04-04T10:29:53.419Z,185.62
2019-04-04T10:30:53.402Z,185.62
2019-04-04T10:31:53.385Z,185.62
2019-04-04T10:32:53.392Z,180.00
2019-04-04T10:33:53.362Z,180.00
2019-04-04T10:34:53.369Z,185.62
2019-04-04T10:35:53.339Z,191.25
2019-04-04T10:36:53.332Z,191.25
2019-04-04T10:37:53.325Z,196.88
2019-04-04T10:38:53.311Z,208.12
2019-04-04T10:39:53.317Z,230.62
2019-04-04T10:40:53.292Z,236.25
2019-04-04T10:41:53.270Z,236.25
2019-04-04T10:42:53.265Z,241.88
2019-04-04T10:43:53.248Z,253.12
2019-04-04T10:44:53.265Z,275.62
2019-04-04T10:45:53.238Z,298.12
2019-04-04T10:46:53.222Z,326.25
2019-04-04T10:47:53.206Z,337.50
2019-04-04T10:48:53.198Z,343.12
2019-04-04T10:49:53.197Z,348.75
2019-04-04T10:50:53.188Z,348.75
2019-04-04T10:51:53.159Z,337.50
2019-04-04T10:52:53.152Z,326.25
2019-04-04T10:53:53.140Z,326.25
2019-04-04T10:54:53.158Z,331.88
2019-04-04T10:55:53.124Z,360.00
2019-04-04T10:56:53.109Z,393.75
2019-04-04T10:57:53.095Z,416.25
2019-04-04T10:58:53.090Z,438.75
2019-04-04T10:59:54.669Z,483.75
2019-04-04T11:00:53.064Z,523.12
2019-04-04T11:01:53.050Z,523.12
2019-04-04T11:02:53.044Z,585.00
2019-04-04T11:03:53.031Z,601.88
2019-04-04T11:04:53.059Z,590.62
2019-04-04T11:05:53.012Z,579.38
2019-04-04T11:06:52.999Z,528.75
2019-04-04T11:07:52.992Z,455.62
2019-04-04T11:08:52.974Z,388.12
2019-04-04T11:09:52.977Z,360.00
2019-04-04T11:10:52.952Z,343.12
2019-04-04T11:11:52.939Z,376.88
2019-04-04T11:12:52.942Z,478.12
2019-04-04T11:13:52.916Z,556.88
2019-04-04T11:14:52.945Z,528.75
2019-04-04T11:15:52.894Z,472.50
2019-04-04T11:16:52.886Z,438.75
2019-04-04T11:17:52.881Z,416.25
2019-04-04T11:18:52.873Z,376.88
2019-04-04T11:19:52.850Z,360.00
2019-04-04T11:20:52.856Z,337.50
2019-04-04T11:21:52.830Z,309.38
2019-04-04T11:22:52.824Z,309.38
2019-04-04T11:23:52.806Z,281.25
2019-04-04T11:24:52.800Z,270.00
2019-04-04T11:25:52.795Z,258.75
2019-04-04T11:26:52.774Z,241.88
2019-04-04T11:27:52.761Z,219.38
2019-04-04T11:28:52.756Z,208.12
2019-04-04T11:29:52.737Z,174.38
2019-04-04T11:30:52.744Z,157.50
2019-04-04T11:31:52.714Z,135.00
2019-04-04T11:32:52.711Z,129.38
2019-04-04T11:33:52.699Z,135.00
2019-04-04T11:34:53.666Z,129.38
2019-04-04T11:35:52.686Z,123.75
2019-04-04T11:36:52.673Z,129.38
2019-04-04T11:37:52.649Z,146.25
2019-04-04T11:38:52.643Z,146.25
2019-04-04T11:39:54.976Z,140.62
2019-04-04T11:40:52.644Z,135.00
2019-04-04T11:41:52.606Z,163.12
2019-04-04T11:42:52.610Z,185.62
2019-04-04T11:43:52.583Z,180.00
2019-04-04T11:44:52.577Z,185.62
2019-04-04T11:45:52.575Z,185.62
2019-04-04T11:46:52.556Z,168.75
2019-04-04T11:47:52.542Z,174.38
2019-04-04T11:48:52.531Z,185.62
2019-04-04T11:49:52.516Z,191.25
2019-04-04T11:50:52.528Z,180.00
2019-04-04T11:51:52.495Z,168.75
2019-04-04T11:52:53.496Z,168.75
2019-04-04T11:53:52.471Z,168.75
2019-04-04T11:54:52.466Z,151.88
2019-04-04T11:55:52.465Z,146.25
2019-04-04T11:56:52.444Z,151.88
2019-04-04T11:57:52.430Z,157.50
2019-04-04T11:58:52.420Z,146.25
2019-04-04T11:59:52.404Z,135.00
2019-04-04T12:00:52.414Z,135.00
2019-04-04T12:01:52.382Z,123.75
2019-04-04T12:02:52.378Z,129.38
2019-04-04T12:03:52.373Z,140.62
2019-04-04T12:04:52.357Z,146.25
2019-04-04T12:05:52.359Z,157.50
2019-04-04T12:06:52.334Z,185.62
2019-04-04T12:07:52.315Z,202.50
2019-04-04T12:08:52.311Z,225.00
2019-04-04T12:09:52.297Z,247.50
2019-04-04T12:10:52.307Z,275.62
2019-04-04T12:11:52.281Z,275.62
2019-04-04T12:12:52.264Z,247.50
2019-04-04T12:13:52.257Z,219.38
2019-04-04T12:14:52.243Z,202.50
2019-04-04T12:15:52.247Z,191.25
2019-04-04T12:16:52.221Z,180.00
2019-04-04T12:17:52.206Z,163.12
2019-04-04T12:18:52.199Z,146.25
2019-04-04T12:19:52.234Z,123.75
2019-04-04T12:20:52.195Z,101.25
2019-04-04T12:21:52.174Z,84.38
2019-04-04T12:22:52.153Z,78.75
2019-04-04T12:23:52.141Z,78.75
2019-04-04T12:24:52.141Z,90.00
2019-04-04T12:25:52.143Z,106.88
2019-04-04T12:26:52.116Z,129.38
2019-04-04T12:27:52.104Z,135.00
2019-04-04T12:28:52.091Z,123.75
2019-04-04T12:29:52.074Z,123.75
2019-04-04T12:30:52.093Z,129.38
2019-04-04T12:31:52.049Z,135.00
2019-04-04T12:32:52.055Z,140.62
2019-04-04T12:33:52.027Z,146.25
2019-04-04T12:34:52.026Z,163.12
2019-04-04T12:35:52.600Z,151.88
2019-04-04T12:36:52.001Z,135.00
2019-04-04T12:37:51.985Z,129.38
2019-04-04T12:38:51.985Z,129.38
2019-04-04T12:39:51.961Z,135.00
2019-04-04T12:40:51.969Z,135.00
2019-04-04T12:41:51.946Z,140.62
2019-04-04T12:42:51.934Z,151.88
2019-04-04T12:43:51.917Z,163.12
2019-04-04T12:44:51.923Z,151.88
2019-04-04T12:45:51.919Z,140.62
2019-04-04T12:46:51.888Z,123.75
2019-04-04T12:47:51.875Z,112.50
2019-04-04T12:48:51.871Z,112.50
2019-04-04T12:49:51.853Z,118.12
2019-04-04T12:50:51.882Z,129.38
2019-04-04T12:51:51.830Z,140.62
2019-04-04T12:52:51.827Z,140.62
2019-04-04T12:53:51.806Z,146.25